Time;durP1;ratioP1;P1;durP2;ratioP2;P2;SDS_P1;SDS_P2;PMS_P1;PMS_P2;Temp;Humidity;BMP_temperature;BMP_pressure;BME280_temperature;BME280_humidity;BME280_pressure;Samples;Min_cycle;Max_cycle;Signal;HPM_P1;HPM_P2
2022/01/22 00:01:04;;;;;;;17.77;7.00;;;;;;;-0.46;85.81;98191.69;5048597;28;20041;-64
2022/01/22 00:03:30;;;;;;;20.42;7.00;;;;;;;-0.47;86.18;98187.41;5023068;28;20152;-67
2022/01/22 00:05:55;;;;;;;14.55;5.90;;;;;;;-0.52;87.54;98186.53;5029510;28;20462;-65
2022/01/22 00:08:21;;;;;;;14.38;6.78;;;;;;;-0.52;88.31;98175.75;5026836;28;20657;-67
2022/01/22 00:10:49;;;;;;;14.68;6.28;;;;;;;-0.56;88.53;98169.28;5023902;28;20087;-66
2022/01/22 00:15:44;;;;;;;16.85;6.55;;;;;;;-0.78;90.59;98164.81;5039116;28;20124;-66
2022/01/22 00:18:10;;;;;;;11.10;5.88;;;;;;;-0.87;92.11;98169.03;5044432;28;20071;-67
2022/01/22 00:20:38;;;;;;;11.45;5.75;;;;;;;-0.95;92.63;98164.94;5034423;28;20041;-66
2022/01/22 00:23:05;;;;;;;16.27;6.35;;;;;;;-0.94;92.84;98166.56;5037690;28;20463;-64
2022/01/22 00:25:31;;;;;;;14.48;7.15;;;;;;;-0.97;94.10;98157.13;5020208;28;20101;-67
2022/01/22 00:27:57;;;;;;;13.85;6.57;;;;;;;-1.07;96.14;98153.53;5035578;28;20128;-67
2022/01/22 00:30:25;;;;;;;13.75;5.45;;;;;;;-1.11;97.14;98158.63;5019705;28;21001;-67
2022/01/22 00:32:51;;;;;;;13.00;5.60;;;;;;;-1.04;96.97;98153.84;5023724;28;20132;-66
2022/01/22 00:35:18;;;;;;;9.52;5.22;;;;;;;-0.89;96.91;98152.34;5030329;28;20049;-67
2022/01/22 00:37:47;;;;;;;10.18;5.43;;;;;;;-0.84;96.00;98150.50;5036602;28;20037;-66
2022/01/22 00:40:14;;;;;;;12.15;5.75;;;;;;;-0.79;95.10;98147.06;5039848;28;20490;-65
2022/01/22 00:42:43;;;;;;;17.63;5.82;;;;;;;-0.83;95.07;98154.84;5040507;28;20044;-66
2022/01/22 00:45:10;;;;;;;22.40;6.67;;;;;;;-1.07;95.77;98150.84;5038538;28;20433;-68
2022/01/22 00:47:37;;;;;;;14.82;7.07;;;;;;;-1.13;95.80;98146.47;5043241;28;20288;-65
2022/01/22 00:50:04;;;;;;;12.27;5.57;;;;;;;-1.12;96.04;98153.50;5039886;28;20072;-63
2022/01/22 00:52:29;;;;;;;10.85;5.50;;;;;;;-1.25;96.21;98147.47;5036061;28;20099;-67
2022/01/22 00:54:55;;;;;;;12.60;6.22;;;;;;;-1.42;96.64;98149.47;5043477;28;20094;-67
2022/01/22 00:57:20;;;;;;;9.43;4.93;;;;;;;-1.44;96.69;98149.72;5036333;28;20139;-67
2022/01/22 00:59:46;;;;;;;11.07;5.97;;;;;;;-1.46;96.79;98142.94;5042868;28;20524;-67
2022/01/22 01:02:11;;;;;;;13.95;5.32;;;;;;;-1.46;97.01;98142.94;5037613;28;20037;-67
2022/01/22 01:04:37;;;;;;;11.40;5.68;;;;;;;-1.46;97.18;98141.09;5040869;28;20123;-66
2022/01/22 01:07:04;;;;;;;14.45;5.35;;;;;;;-1.31;96.68;98135.06;5028848;28;20056;-63
2022/01/22 01:09:31;;;;;;;16.17;6.20;;;;;;;-1.24;96.15;98138.34;5042613;28;20064;-67
2022/01/22 01:12:01;;;;;;;14.70;6.00;;;;;;;-1.14;95.85;98144.88;5042679;28;20059;-67
2022/01/22 01:14:34;;;;;;;17.42;5.68;;;;;;;-1.06;95.16;98139.00;5032518;28;20410;-66
2022/01/22 01:33:22;;;;;;;12.05;4.90;;;;;;;-1.20;95.73;98128.69;5033719;28;20091;-66
2022/01/22 01:35:48;;;;;;;10.43;5.05;;;;;;;-1.28;95.45;98131.03;5037310;28;20134;-64
2022/01/22 01:38:14;;;;;;;10.65;5.70;;;;;;;-1.58;99.51;98130.47;5018300;28;20123;-66
2022/01/22 01:40:43;;;;;;;14.32;4.93;;;;;;;-1.68;100.00;98134.94;5030666;28;20197;-65
2022/01/22 01:43:21;;;;;;;8.25;4.97;;;;;;;-1.73;100.00;98139.19;5023947;28;20102;-67
2022/01/22 01:45:46;;;;;;;15.00;5.53;;;;;;;-1.74;100.00;98134.88;5053224;28;20426;-66
2022/01/22 01:48:17;;;;;;;15.23;6.07;;;;;;;-1.81;100.00;98136.94;5035254;28;20047;-67
2022/01/22 01:50:44;;;;;;;11.95;6.10;;;;;;;-1.76;100.00;98136.19;5046084;28;20041;-66
2022/01/22 01:53:17;;;;;;;11.82;4.85;;;;;;;-1.69;100.00;98133.28;5037044;28;20037;-66
2022/01/22 01:56:02;;;;;;;12.25;5.88;;;;;;;-1.64;100.00;98136.88;5027012;28;20053;-65
2022/01/22 01:58:28;;;;;;;13.80;6.25;;;;;;;-1.83;100.00;98140.94;5016076;28;20132;-67
2022/01/22 02:00:54;;;;;;;10.38;5.75;;;;;;;-1.83;100.00;98133.69;5028409;28;20049;-66
2022/01/22 02:03:20;;;;;;;13.60;5.47;;;;;;;-1.75;100.00;98140.47;5037418;28;20409;-67
2022/01/22 02:05:45;;;;;;;15.10;6.47;;;;;;;-1.60;100.00;98134.50;5043993;28;20053;-66
2022/01/22 02:08:13;;;;;;;15.10;5.85;;;;;;;-1.55;100.00;98124.59;5029556;28;20076;-64
2022/01/22 02:10:45;;;;;;;12.07;5.40;;;;;;;-1.51;100.00;98124.91;5021543;28;20782;-68
2022/01/22 02:24:11;;;;;;;9.45;4.20;;;;;;;-1.65;100.00;98127.19;5026670;28;20063;-67
2022/01/22 02:26:37;;;;;;;13.73;5.55;;;;;;;-1.70;100.00;98137.84;5021715;28;20045;-67
2022/01/22 02:29:03;;;;;;;13.43;5.47;;;;;;;-1.74;100.00;98136.75;5037913;28;20045;-63
2022/01/22 02:34:09;;;;;;;14.00;5.68;;;;;;;-1.68;100.00;98135.72;5040747;28;20135;-67
2022/01/22 02:36:58;;;;;;;13.70;5.10;;;;;;;-1.50;100.00;98131.09;5055897;28;20047;-69
2022/01/22 02:39:58;;;;;;;10.98;5.85;;;;;;;-1.33;100.00;98131.81;5039657;28;20815;-66
2022/01/22 02:42:09;;;;;;;10.07;5.57;;;;;;;-1.20;100.00;98122.50;5035957;28;20049;-66
2022/01/22 02:44:43;;;;;;;14.18;5.90;;;;;;;-1.23;100.00;98125.69;5042778;28;20255;-66
2022/01/22 02:47:08;;;;;;;16.05;5.47;;;;;;;-1.22;100.00;98128.13;5034158;28;20048;-64
2022/01/22 02:49:35;;;;;;;10.90;5.18;;;;;;;-1.30;100.00;98130.47;5040396;28;20041;-64
2022/01/22 02:52:10;;;;;;;15.50;6.05;;;;;;;-1.18;100.00;98131.13;5039767;28;20111;-65
2022/01/22 02:54:36;;;;;;;9.20;4.97;;;;;;;-1.31;94.53;98126.97;5029432;28;20053;-66
2022/01/22 02:57:01;;;;;;;7.55;4.30;;;;;;;-1.30;94.59;98135.84;5020366;28;20048;-66
2022/01/22 02:59:27;;;;;;;11.48;4.57;;;;;;;-1.41;93.82;98125.00;5015866;28;20049;-66
2022/01/22 03:01:52;;;;;;;9.93;4.18;;;;;;;-1.39;94.38;98130.13;5018908;28;20038;-66
2022/01/22 03:04:18;;;;;;;9.43;4.82;;;;;;;-1.29;96.33;98134.81;5015102;28;20127;-66
2022/01/22 03:06:44;;;;;;;11.35;4.93;;;;;;;-1.23;96.83;98131.88;5016677;28;20056;-65
2022/01/22 03:09:12;;;;;;;13.55;5.10;;;;;;;-1.29;97.39;98124.84;5017434;28;20045;-67
2022/01/22 03:12:01;;;;;;;8.60;5.03;;;;;;;-1.37;98.72;98125.28;5030756;28;20049;-67
2022/01/22 03:27:50;;;;;;;12.48;4.57;;;;;;;-0.94;98.70;98146.94;5038409;28;20363;-65
2022/01/22 03:30:16;;;;;;;12.02;4.13;;;;;;;-0.70;95.80;98142.00;5026513;28;20056;-65
2022/01/22 03:32:45;;;;;;;10.15;4.10;;;;;;;-0.47;91.52;98146.19;5021857;28;20443;-66
2022/01/22 03:35:24;;;;;;;8.82;4.03;;;;;;;-0.40;90.94;98149.47;5023857;28;20045;-66
2022/01/22 03:37:56;;;;;;;11.95;4.20;;;;;;;-0.43;92.24;98150.81;5015782;28;20038;-65
2022/01/22 03:40:25;;;;;;;8.23;3.88;;;;;;;-0.49;92.49;98151.84;5021800;28;20045;-65
2022/01/22 03:42:52;;;;;;;14.30;5.15;;;;;;;-0.52;93.87;98151.53;5035750;28;20056;-66
2022/01/22 03:45:21;;;;;;;6.28;3.58;;;;;;;-0.49;94.29;98148.34;5029476;28;20037;-65
2022/01/22 03:47:46;;;;;;;11.15;3.85;;;;;;;-0.34;90.72;98142.22;5038423;28;20080;-65
2022/01/22 03:50:14;;;;;;;5.97;3.03;;;;;;;-0.40;88.90;98139.53;5018364;28;20073;-66
2022/01/22 03:52:40;;;;;;;9.57;3.67;;;;;;;-0.35;89.03;98136.03;5032966;28;20048;-66
2022/01/22 03:55:10;;;;;;;7.25;3.22;;;;;;;-0.34;90.58;98137.69;5033831;28;20048;-65
2022/01/22 03:57:36;;;;;;;;;;;;;;;-0.35;91.05;98137.94;5037661;28;20663;-66
2022/01/22 04:00:05;;;;;;;8.38;4.38;;;;;;;-0.40;91.22;98130.63;5038314;28;19999;-63
2022/01/22 04:05:15;;;;;;;9.32;3.65;;;;;;;-0.43;92.55;98123.91;5030011;28;20044;-64
2022/01/22 04:10:25;;;;;;;7.32;3.47;;;;;;;-0.53;90.47;98126.50;5035548;28;20143;-67
2022/01/22 04:13:02;;;;;;;9.40;4.18;;;;;;;-0.56;92.05;98128.91;5030076;28;20116;-66
2022/01/22 04:15:30;;;;;;;9.38;3.88;;;;;;;-0.63;93.17;98131.81;5025932;28;20486;-66
2022/01/22 04:26:22;;;;;;;10.55;5.13;;;;;;;-0.81;99.24;98133.88;5036679;28;20041;-67
2022/01/22 04:28:47;;;;;;;7.90;4.00;;;;;;;-0.69;98.44;98135.56;5035201;28;20045;-67
2022/01/22 04:31:13;;;;;;;7.75;3.65;;;;;;;-0.76;97.79;98130.38;5026206;28;20037;-67
2022/01/22 04:33:39;;;;;;;7.03;3.67;;;;;;;-0.85;96.61;98129.25;5031256;28;20071;-68
2022/01/22 04:36:05;;;;;;;7.47;3.55;;;;;;;-0.74;96.05;98122.88;5030184;28;20049;-63
2022/01/22 04:38:31;;;;;;;7.25;3.50;;;;;;;-0.58;95.60;98129.16;5044283;28;20045;-66
2022/01/22 04:40:58;;;;;;;6.93;3.20;;;;;;;-0.43;95.32;98131.16;5040850;28;20045;-67
2022/01/22 04:43:24;;;;;;;8.93;3.53;;;;;;;-0.48;94.59;98131.13;5037283;28;20064;-66
2022/01/22 04:46:04;;;;;;;9.98;4.13;;;;;;;-0.48;95.27;98136.50;5054121;28;20043;-67
2022/01/22 04:56:55;;;;;;;6.90;3.40;;;;;;;-0.24;93.68;98143.09;5047803;28;20045;-67
2022/01/22 04:59:21;;;;;;;7.85;3.47;;;;;;;-0.13;92.48;98152.06;5040383;28;20461;-65
2022/01/22 05:01:47;;;;;;;10.68;3.55;;;;;;;-0.13;91.08;98159.31;5035937;28;20038;-66
2022/01/22 05:04:12;;;;;;;8.15;3.35;;;;;;;-0.05;89.67;98162.34;5026089;28;20041;-67
2022/01/22 05:06:38;;;;;;;10.75;5.38;;;;;;;0.00;87.87;98164.25;5036787;28;20048;-64
2022/01/22 05:09:03;;;;;;;7.80;3.75;;;;;;;-0.02;87.37;98161.81;5026079;28;20056;-64
2022/01/22 05:11:29;;;;;;;5.72;3.50;;;;;;;-0.16;88.12;98160.66;5034118;28;20115;-66
2022/01/22 05:13:54;;;;;;;9.45;4.25;;;;;;;-0.19;87.58;98155.81;5028708;28;20155;-67
2022/01/22 05:16:21;;;;;;;4.68;3.38;;;;;;;-0.14;87.01;98160.41;5031022;28;20367;-67
2022/01/22 05:18:56;;;;;;;8.75;3.33;;;;;;;-0.11;85.12;98160.69;5034838;28;20061;-67
2022/01/22 05:21:23;;;;;;;9.52;3.95;;;;;;;-0.19;85.72;98158.50;5026519;28;20103;-64
2022/01/22 05:23:49;;;;;;;9.48;3.97;;;;;;;-0.23;86.28;98155.50;5037414;28;20168;-66
2022/01/22 05:37:06;;;;;;;7.38;4.43;;;;;;;-0.91;91.37;98176.00;5032626;28;20044;-65
2022/01/22 05:39:33;;;;;;;10.85;4.78;;;;;;;-1.06;91.87;98180.19;5037914;28;20080;-66
2022/01/22 05:42:01;;;;;;;8.18;3.88;;;;;;;-1.13;92.65;98182.28;5040302;28;20056;-65
2022/01/22 05:44:28;;;;;;;12.48;4.60;;;;;;;-1.12;92.75;98189.25;5024876;28;20190;-65
2022/01/22 05:46:57;;;;;;;6.13;4.30;;;;;;;-1.05;92.68;98183.69;5033454;28;20442;-68
2022/01/22 05:49:25;;;;;;;9.55;4.65;;;;;;;-0.82;91.65;98177.16;5034298;28;20061;-66
2022/01/22 05:51:53;;;;;;;15.98;4.90;;;;;;;-0.63;89.87;98181.09;5034330;28;20437;-67
2022/01/22 05:54:53;;;;;;;14.48;6.13;;;;;;;-0.49;89.38;98180.63;5022956;28;20052;-67
2022/01/22 06:00:05;;;;;;;19.42;7.40;;;;;;;-0.29;88.00;98179.97;5036284;28;20045;-64
2022/01/22 06:02:31;;;;;;;11.90;5.30;;;;;;;-0.25;87.06;98184.59;5033568;28;20092;-66
2022/01/22 06:04:57;;;;;;;10.50;4.57;;;;;;;-0.22;86.09;98181.38;5021526;28;20034;-67
2022/01/22 06:07:22;;;;;;;13.38;5.03;;;;;;;-0.06;84.94;98178.75;5015473;28;20270;-67
2022/01/22 06:10:02;;;;;;;13.63;4.32;;;;;;;0.10;82.33;98171.56;5021647;28;20038;-66
2022/01/22 06:12:45;;;;;;;10.95;3.75;;;;;;;0.10;83.22;98183.16;5027862;28;20433;-66
2022/01/22 06:15:11;;;;;;;9.65;3.78;;;;;;;-0.01;83.63;98174.19;5037557;28;20049;-65
2022/01/22 06:17:37;;;;;;;7.55;4.70;;;;;;;-0.02;86.65;98179.84;5033424;28;20049;-67
2022/01/22 06:20:06;;;;;;;12.25;4.45;;;;;;;-0.02;86.91;98179.84;5026779;28;20117;-63
2022/01/22 06:22:31;;;;;;;14.03;4.70;;;;;;;0.08;84.75;98188.00;5021369;28;20422;-66
2022/01/22 06:24:57;;;;;;;8.98;4.13;;;;;;;0.09;85.04;98186.09;5038980;28;20048;-67
2022/01/22 06:27:23;;;;;;;9.18;4.25;;;;;;;-0.06;83.77;98186.84;5032998;28;20221;-66
2022/01/22 06:29:48;;;;;;;12.27;4.15;;;;;;;-0.12;85.11;98186.00;5038762;28;20041;-65
2022/01/22 06:32:14;;;;;;;9.20;4.07;;;;;;;-0.22;84.64;98191.31;5034048;28;20048;-65
2022/01/22 06:34:39;;;;;;;9.57;3.55;;;;;;;-0.28;85.75;98193.16;5020836;28;20069;-67
2022/01/22 06:37:05;;;;;;;15.40;3.80;;;;;;;-0.32;86.32;98193.97;5029993;28;20045;-64
2022/01/22 06:39:40;;;;;;;12.50;3.70;;;;;;;-0.38;87.47;98195.78;5030569;28;20453;-66
2022/01/22 06:42:05;;;;;;;7.60;3.85;;;;;;;-0.36;86.84;98206.31;5034275;28;20047;-65
2022/01/22 06:44:34;;;;;;;8.27;4.13;;;;;;;-0.42;87.85;98205.47;5036547;28;20036;-67
2022/01/22 06:47:00;;;;;;;9.43;3.57;;;;;;;-0.39;88.54;98216.53;5032826;28;20037;-67
2022/01/22 06:49:26;;;;;;;6.97;3.90;;;;;;;-0.32;88.49;98210.91;5033582;28;20234;-66
2022/01/22 06:51:54;;;;;;;7.00;4.00;;;;;;;-0.19;88.39;98212.34;5041018;28;20405;-66
2022/01/22 06:54:21;;;;;;;11.55;4.43;;;;;;;-0.08;88.51;98216.72;5034430;28;20049;-67
2022/01/22 06:56:47;;;;;;;7.97;4.15;;;;;;;-0.01;88.50;98224.59;5031948;28;20045;-67
2022/01/22 06:59:13;;;;;;;7.93;3.95;;;;;;;0.02;87.00;98221.38;5032026;28;20052;-66
2022/01/22 07:01:39;;;;;;;9.55;4.18;;;;;;;0.06;88.47;98217.09;5039517;28;20037;-66
2022/01/22 07:04:05;;;;;;;8.80;3.85;;;;;;;0.12;85.88;98218.72;5017245;28;20045;-63
2022/01/22 07:06:30;;;;;;;9.07;3.83;;;;;;;0.22;84.15;98219.84;5020638;28;20045;-65
2022/01/22 07:08:56;;;;;;;9.75;3.67;;;;;;;0.14;84.68;98221.16;5021049;28;20041;-66
2022/01/22 07:11:21;;;;;;;9.07;4.35;;;;;;;0.12;84.71;98215.22;5012352;28;22687;-67
2022/01/22 07:13:47;;;;;;;14.55;4.15;;;;;;;0.25;84.15;98217.44;5020661;28;20045;-66
2022/01/22 07:16:13;;;;;;;12.52;4.55;;;;;;;0.30;82.93;98212.06;5030641;28;20040;-67
2022/01/22 07:18:38;;;;;;;11.40;4.03;;;;;;;0.27;82.13;98219.88;5021176;28;20410;-67
2022/01/22 07:21:18;;;;;;;8.15;3.70;;;;;;;0.14;82.01;98219.25;5017439;28;20146;-65
2022/01/22 07:26:11;;;;;;;10.30;4.40;;;;;;;-0.02;83.39;98226.47;5034194;28;20037;-65
2022/01/22 07:28:39;;;;;;;8.00;4.57;;;;;;;-0.03;84.33;98221.34;5040655;28;20477;-65
2022/01/22 07:31:05;;;;;;;12.43;4.38;;;;;;;-0.04;83.75;98219.72;5034331;28;20053;-64
2022/01/22 07:33:30;;;;;;;10.43;3.80;;;;;;;-0.03;83.94;98226.72;5032021;28;20041;-66
2022/01/22 07:35:55;;;;;;;11.40;3.85;;;;;;;0.01;83.47;98235.91;5038086;28;20134;-66
2022/01/22 07:38:22;;;;;;;16.15;4.00;;;;;;;0.03;83.26;98236.44;5035114;28;20729;-66
2022/01/22 07:40:47;;;;;;;8.25;3.13;;;;;;;0.16;81.66;98230.63;5040770;28;20041;-67
2022/01/22 07:43:16;;;;;;;6.90;3.20;;;;;;;0.28;79.69;98219.63;5034843;28;20520;-67
2022/01/22 07:45:42;;;;;;;10.60;2.92;;;;;;;0.37;78.81;98219.94;5052479;28;20037;-66
2022/01/22 07:48:08;;;;;;;8.35;3.50;;;;;;;0.50;78.16;98215.94;5039358;28;20037;-67
2022/01/22 07:50:33;;;;;;;18.17;4.25;;;;;;;0.50;78.08;98215.94;5042777;28;20390;-66
2022/01/22 07:52:58;;;;;;;16.00;4.68;;;;;;;0.45;77.88;98219.44;5041721;28;20044;-67
2022/01/22 07:55:24;;;;;;;16.80;3.10;;;;;;;0.45;78.11;98224.81;5035156;28;20087;-67
2022/01/22 07:57:50;;;;;;;11.45;3.63;;;;;;;0.40;78.26;98232.88;5024257;28;20199;-66
2022/01/22 08:00:16;;;;;;;8.98;3.30;;;;;;;0.27;79.80;98236.88;5020019;28;20042;-65
2022/01/22 08:02:43;;;;;;;8.85;3.70;;;;;;;0.24;80.02;98234.69;5023431;28;20042;-67
2022/01/22 08:05:09;;;;;;;7.43;3.72;;;;;;;0.28;81.16;98234.97;5019148;28;20041;-67
2022/01/22 08:07:34;;;;;;;6.95;3.50;;;;;;;0.39;81.65;98236.63;5026829;28;20434;-67
2022/01/22 08:10:00;;;;;;;16.77;5.10;;;;;;;0.45;83.80;98230.22;5042729;28;20041;-67
2022/01/22 08:12:25;;;;;;;10.15;4.93;;;;;;;0.54;81.28;98243.97;5022890;28;20889;-68
2022/01/22 08:14:52;;;;;;;9.73;4.13;;;;;;;0.59;80.61;98245.91;5024267;28;20050;-66
2022/01/22 08:17:17;;;;;;;11.68;4.03;;;;;;;0.64;79.29;98241.34;5016638;28;20046;-68
2022/01/22 08:19:43;;;;;;;9.50;3.67;;;;;;;0.60;80.19;98247.53;5018132;28;20064;-68
2022/01/22 08:22:08;;;;;;;34.13;11.43;;;;;;;0.66;79.21;98246.47;5019468;28;20446;-68
2022/01/22 08:24:34;;;;;;;17.15;6.10;;;;;;;0.71;79.23;98257.28;5033609;28;20053;-66
2022/01/22 08:29:41;;;;;;;8.65;3.92;;;;;;;1.03;81.76;98240.91;5031294;28;20041;-68
2022/01/22 08:37:26;;;;;;;11.82;3.47;;;;;;;0.86;79.57;98237.63;5030238;28;20073;-68
2022/01/22 08:39:52;;;;;;;10.65;3.60;;;;;;;0.86;80.53;98238.44;5030783;28;20046;-66
2022/01/22 08:42:18;;;;;;;8.82;4.47;;;;;;;0.84;80.83;98229.00;5036589;28;20061;-67
2022/01/22 08:44:43;;;;;;;7.43;3.47;;;;;;;0.67;82.30;98227.31;5046109;28;20522;-66
2022/01/22 08:47:09;;;;;;;7.35;3.40;;;;;;;0.61;82.20;98236.47;5037759;28;20074;-67
2022/01/22 08:49:35;;;;;;;8.70;3.38;;;;;;;0.63;82.77;98236.19;5023525;28;20042;-67
2022/01/22 08:52:01;;;;;;;7.03;3.35;;;;;;;0.67;82.08;98248.09;5023648;28;20037;-67
2022/01/22 08:54:27;;;;;;;9.25;4.03;;;;;;;0.69;82.31;98244.06;5031755;28;20044;-67
2022/01/22 08:56:53;;;;;;;8.13;3.42;;;;;;;0.65;82.12;98242.97;5033602;28;20134;-67
2022/01/22 08:59:18;;;;;;;11.73;3.83;;;;;;;0.80;80.90;98250.28;5037748;28;20156;-68
2022/01/22 09:01:48;;;;;;;12.85;3.50;;;;;;;0.90;80.11;98255.72;5043180;28;20037;-65
2022/01/22 09:04:13;;;;;;;8.15;3.35;;;;;;;0.88;79.00;98263.28;5052738;28;20049;-64
2022/01/22 09:06:39;;;;;;;12.55;3.80;;;;;;;0.68;78.08;98265.88;5042154;28;20079;-65
2022/01/22 09:09:10;;;;;;;8.98;4.15;;;;;;;0.68;77.92;98272.09;5052889;28;20466;-66
2022/01/22 09:11:38;;;;;;;9.07;4.28;;;;;;;0.61;80.21;98274.22;5034076;28;20440;-68
2022/01/22 09:14:06;;;;;;;6.65;4.10;;;;;;;0.50;80.74;98270.66;5039715;28;20045;-63
2022/01/22 09:16:33;;;;;;;10.52;4.40;;;;;;;0.44;81.32;98276.31;5041886;28;20049;-68
2022/01/22 09:19:05;;;;;;;8.07;3.33;;;;;;;0.42;81.96;98279.25;5040666;28;20104;-67
2022/01/22 09:21:46;;;;;;;6.05;3.17;;;;;;;0.15;81.48;98282.88;5034283;28;20045;-68
2022/01/22 09:24:15;;;;;;;11.75;5.05;;;;;;;0.14;82.80;98285.81;5030086;28;20546;-68
2022/01/22 09:26:41;;;;;;;9.60;3.67;;;;;;;0.30;83.30;98282.16;5031530;28;20041;-66
2022/01/22 09:29:06;;;;;;;5.90;3.50;;;;;;;0.43;82.06;98278.16;5022951;28;20083;-68
2022/01/22 09:31:33;;;;;;;7.07;2.92;;;;;;;0.74;77.55;98286.44;5029961;28;20057;-67
2022/01/22 09:34:00;;;;;;;11.52;3.30;;;;;;;0.89;76.07;98283.78;5034586;28;20041;-66
2022/01/22 09:36:28;;;;;;;11.70;3.40;;;;;;;1.02;76.51;98281.66;5028924;28;20084;-68
2022/01/22 09:38:54;;;;;;;11.07;3.95;;;;;;;1.26;76.06;98290.06;5035142;28;20091;-67
2022/01/22 09:41:21;;;;;;;7.13;2.97;;;;;;;1.40;76.85;98282.28;5030148;28;20037;-68
2022/01/22 09:43:47;;;;;;;15.20;3.60;;;;;;;1.33;75.61;98283.34;5028726;28;20080;-66
2022/01/22 09:46:13;;;;;;;7.55;3.88;;;;;;;1.39;75.38;98284.16;5045751;28;20045;-64
2022/01/22 09:48:43;;;;;;;7.07;3.80;;;;;;;1.42;74.87;98286.31;5033212;28;20060;-67
2022/01/22 09:51:10;;;;;;;12.82;4.88;;;;;;;1.37;74.89;98275.53;5030960;28;20090;-64
2022/01/22 09:53:36;;;;;;;19.40;4.65;;;;;;;1.44;74.79;98286.06;5039231;28;20064;-66
2022/01/22 09:56:02;;;;;;;12.07;2.95;;;;;;;1.49;73.18;98288.75;5039319;28;20037;-67
2022/01/22 09:58:28;;;;;;;11.80;4.50;;;;;;;1.43;74.21;98282.53;5030468;28;20069;-66
2022/01/22 10:00:53;;;;;;;7.55;3.38;;;;;;;1.31;73.65;98290.91;5032644;28;20151;-67
2022/01/22 10:03:20;;;;;;;7.00;3.45;;;;;;;1.35;73.38;98299.25;5035596;28;20048;-67
2022/01/22 10:05:47;;;;;;;11.52;4.80;;;;;;;1.51;73.46;98298.22;5040809;28;20060;-68
2022/01/22 10:08:24;;;;;;;17.83;6.63;;;;;;;1.51;74.03;98290.13;5036403;28;20068;-66
2022/01/22 10:10:51;;;;;;;12.02;4.00;;;;;;;1.53;74.38;98290.66;5040962;28;20040;-67
2022/01/22 10:13:44;;;;;;;7.43;3.63;;;;;;;1.42;76.59;98304.41;5030325;28;20042;-65
2022/01/22 10:16:17;;;;;;;10.90;3.15;;;;;;;1.63;73.70;98300.66;5034323;28;20041;-65
2022/01/22 10:18:43;;;;;;;14.40;4.03;;;;;;;1.55;74.40;98297.66;5039857;28;20055;-66
2022/01/22 10:21:11;;;;;;;9.15;3.40;;;;;;;1.25;74.70;98297.38;5032716;28;20136;-68
2022/01/22 10:23:39;;;;;;;5.70;2.70;;;;;;;0.93;78.88;98286.75;5040708;28;20033;-66
2022/01/22 10:26:08;;;;;;;5.60;3.15;;;;;;;0.80;81.37;98282.66;5035786;28;20036;-64
2022/01/22 10:29:00;;;;;;;5.83;3.40;;;;;;;0.84;82.09;98282.94;5039995;28;20367;-66
2022/01/22 10:31:41;;;;;;;18.80;6.95;;;;;;;0.81;81.26;98284.28;5038276;28;20041;-64
2022/01/22 10:34:11;;;;;;;20.65;7.78;;;;;;;0.81;82.39;98284.28;5033518;28;20124;-65
2022/01/22 10:36:38;;;;;;;16.20;7.97;;;;;;;0.82;84.49;98288.59;5038410;28;20106;-67
2022/01/22 10:39:21;;;;;;;19.85;7.32;;;;;;;1.04;82.87;98290.28;5022877;28;20056;-66
2022/01/22 10:41:46;;;;;;;13.45;5.38;;;;;;;1.26;83.12;98288.19;5021003;28;20386;-67
2022/01/22 10:44:21;;;;;;;10.13;4.00;;;;;;;1.33;82.10;98298.72;5015153;28;20041;-67
2022/01/22 10:46:50;;;;;;;11.68;3.60;;;;;;;1.59;84.32;98301.47;5036488;28;20048;-65
2022/01/22 10:49:19;;;;;;;8.93;3.58;;;;;;;1.81;82.77;98296.63;5030176;28;20049;-67
2022/01/22 10:52:00;;;;;;;7.72;3.55;;;;;;;1.87;81.55;98292.84;5035124;28;20052;-65
2022/01/22 10:54:30;;;;;;;7.57;3.15;;;;;;;1.96;80.54;98286.88;5036305;28;20057;-68
2022/01/22 10:57:12;;;;;;;15.07;3.80;;;;;;;1.82;81.11;98281.19;5039801;28;20053;-65
2022/01/22 10:59:45;;;;;;;5.65;3.10;;;;;;;1.74;83.23;98284.47;5041197;28;20056;-67
2022/01/22 11:02:10;;;;;;;7.82;3.72;;;;;;;1.80;83.83;98283.38;5032682;28;20512;-65
2022/01/22 11:04:36;;;;;;;12.95;3.45;;;;;;;1.95;84.50;98285.28;5029259;28;20045;-65
2022/01/22 11:07:06;;;;;;;10.50;3.47;;;;;;;1.94;84.88;98286.34;5021669;28;20110;-66
2022/01/22 11:09:33;;;;;;;7.53;3.90;;;;;;;1.98;84.96;98287.41;5018256;28;20065;-66
2022/01/22 11:12:00;;;;;;;5.47;3.40;;;;;;;1.85;86.23;98286.88;5022516;28;20398;-64
2022/01/22 11:14:28;;;;;;;12.35;4.78;;;;;;;2.01;87.29;98284.97;5013349;28;20045;-69
2022/01/22 11:16:54;;;;;;;8.57;4.18;;;;;;;1.98;87.79;98288.25;5030532;28;20041;-67
2022/01/22 11:19:30;;;;;;;7.38;3.70;;;;;;;2.02;87.84;98289.31;5032633;28;20037;-67
2022/01/22 11:21:56;;;;;;;8.25;4.03;;;;;;;1.87;88.44;98276.63;5038906;28;20055;-66
2022/01/22 11:24:24;;;;;;;10.05;3.55;;;;;;;1.55;89.55;98281.47;5027433;28;22421;-67
2022/01/22 11:26:57;;;;;;;7.88;3.45;;;;;;;1.78;88.67;98280.13;5034633;28;20133;-65
2022/01/22 11:29:26;;;;;;;12.35;4.03;;;;;;;1.69;88.09;98271.75;5014364;28;20659;-67
2022/01/22 11:31:53;;;;;;;5.80;3.40;;;;;;;1.62;89.20;98266.63;5017355;28;20106;-67
2022/01/22 11:34:23;;;;;;;11.50;3.80;;;;;;;1.57;88.87;98260.41;5011200;28;20042;-67
2022/01/22 11:37:17;;;;;;;8.07;3.97;;;;;;;1.89;86.58;98254.72;5023889;28;20055;-65
2022/01/22 11:39:43;;;;;;;5.65;3.58;;;;;;;1.98;86.38;98249.59;5028692;28;20086;-64
2022/01/22 11:42:09;;;;;;;8.43;3.97;;;;;;;1.88;86.96;98255.81;5033528;28;20041;-66
2022/01/22 11:44:48;;;;;;;7.90;4.43;;;;;;;2.13;85.47;98256.88;5030211;28;20045;-67
2022/01/22 11:47:20;;;;;;;10.63;4.15;;;;;;;1.95;85.72;98259.06;5032354;28;20094;-66
2022/01/22 11:50:06;;;;;;;10.75;4.32;;;;;;;1.74;88.30;98263.66;5038043;28;20040;-66
2022/01/22 11:52:35;;;;;;;8.27;3.92;;;;;;;1.86;86.65;98258.78;5034441;28;20409;-65
2022/01/22 11:55:10;;;;;;;12.43;4.50;;;;;;;1.97;86.41;98250.69;5035069;28;20094;-66
2022/01/22 11:57:35;;;;;;;6.65;3.80;;;;;;;2.00;86.40;98252.81;5038734;28;20048;-67
2022/01/22 12:00:20;;;;;;;8.25;4.07;;;;;;;1.87;86.53;98248.78;5047462;28;20048;-68
2022/01/22 12:03:16;;;;;;;9.07;4.15;;;;;;;2.05;85.28;98255.53;5036903;28;20525;-68
2022/01/22 12:05:54;;;;;;;13.10;4.35;;;;;;;2.00;84.92;98250.13;5036664;28;20103;-67
2022/01/22 12:08:23;;;;;;;10.20;4.70;;;;;;;2.03;86.23;98257.69;5028308;28;20140;-68
2022/01/22 12:16:41;;;;;;;9.97;3.93;;;;;;;2.47;79.22;98238.13;5022635;28;20176;-68
2022/01/22 12:22:33;;;;;;;7.80;4.30;;;;;;;2.12;82.77;98247.13;5033038;28;20041;-67
2022/01/22 12:25:20;;;;;;;9.32;3.50;;;;;;;2.26;81.37;98246.28;5036145;28;20118;-65
2022/01/22 12:27:48;;;;;;;6.13;3.47;;;;;;;2.06;80.16;98241.72;5032504;28;20076;-69
2022/01/22 12:30:15;;;;;;;9.50;3.70;;;;;;;2.01;79.90;98240.94;5028928;28;20083;-68
2022/01/22 12:32:48;;;;;;;15.77;5.65;;;;;;;1.96;81.77;98233.63;5041695;28;20178;-68
2022/01/22 12:35:19;;;;;;;9.35;4.20;;;;;;;1.98;81.52;98219.84;5035433;28;20079;-64
2022/01/22 12:37:51;;;;;;;12.00;4.50;;;;;;;1.99;80.94;98226.91;5040122;28;20060;-66
2022/01/22 12:40:33;;;;;;;11.02;4.72;;;;;;;1.87;81.92;98236.09;5033266;28;20502;-66
2022/01/22 12:43:13;;;;;;;11.50;4.32;;;;;;;1.76;82.81;98228.28;5035362;28;20044;-67
2022/01/22 12:45:43;;;;;;;8.52;4.35;;;;;;;1.79;82.76;98231.25;5040211;28;20037;-66
2022/01/22 12:48:12;;;;;;;12.70;5.13;;;;;;;1.91;82.24;98230.97;5049170;28;20056;-67
2022/01/22 12:50:37;;;;;;;8.02;4.35;;;;;;;1.90;81.39;98232.84;5041270;28;20071;-68
2022/01/22 12:53:13;;;;;;;14.68;4.75;;;;;;;1.81;80.59;98231.78;5035192;28;20506;-62
2022/01/22 12:56:02;;;;;;;27.77;12.50;;;;;;;1.83;81.49;98235.00;5038373;28;20052;-66
2022/01/22 12:58:31;;;;;;;14.63;5.65;;;;;;;2.05;81.45;98221.22;5039304;28;20051;-67
2022/01/22 13:01:22;;;;;;;12.82;4.75;;;;;;;2.00;83.49;98218.53;5041253;28;20095;-66
2022/01/22 13:03:53;;;;;;;6.63;3.60;;;;;;;1.96;83.37;98219.31;5035786;28;20048;-69
2022/01/22 13:06:22;;;;;;;6.50;4.00;;;;;;;1.99;81.40;98211.47;5029567;28;20045;-67
2022/01/22 13:08:48;;;;;;;7.82;3.80;;;;;;;1.99;79.61;98213.38;5039978;28;20040;-68
2022/01/22 13:11:18;;;;;;;8.57;4.20;;;;;;;2.03;79.83;98209.84;5033899;28;20417;-65
2022/01/22 13:13:46;;;;;;;;;;;;;;;2.04;81.80;98214.19;5039986;28;20546;-67
2022/01/22 13:16:13;;;;;;;13.27;4.90;;;;;;;1.94;83.21;98205.28;5026508;28;19925;-64
2022/01/22 13:18:43;;;;;;;12.98;6.15;;;;;;;2.04;83.91;98200.66;5036764;28;20533;-67
2022/01/22 13:21:11;;;;;;;8.30;4.40;;;;;;;2.03;81.54;98198.22;5021028;28;20049;-65
2022/01/22 13:23:37;;;;;;;11.55;5.90;;;;;;;2.14;79.60;98196.31;5036539;28;20038;-66